Time;durP1;ratioP1;P1;durP2;ratioP2;P2;SDS_P1;SDS_P2;PMS_P1;PMS_P2;Temp;Humidity;BMP_temperature;BMP_pressure;BME280_temperature;BME280_humidity;BME280_pressure;Samples;Min_cycle;Max_cycle;Signal;HPM_P1;HPM_P2
2022/06/15 00:00:13;;;;;;;0.30;0.30;;;;;;;16.29;51.03;101643.94;699419;28;21554;-66
2022/06/15 00:00:34;;;;;;;0.30;0.30;;;;;;;16.27;50.52;101637.81;698609;28;44200;-66
2022/06/15 00:00:58;;;;;;;0.30;0.30;;;;;;;16.27;50.90;101641.41;698921;28;46402;-66
2022/06/15 00:01:22;;;;;;;0.30;0.30;;;;;;;16.28;50.71;101645.78;696552;28;92354;-66
2022/06/15 00:01:43;;;;;;;0.30;0.30;;;;;;;16.27;51.05;101638.69;696747;28;92173;-66
2022/06/15 00:02:05;;;;;;;0.20;0.20;;;;;;;16.27;50.97;101646.00;699877;28;22405;-66
2022/06/15 00:02:27;;;;;;;0.30;0.30;;;;;;;16.24;51.07;101643.66;699445;28;21627;-66
2022/06/15 00:02:48;;;;;;;0.30;0.30;;;;;;;16.20;50.79;101641.31;698772;28;46503;-66
2022/06/15 00:03:10;;;;;;;0.30;0.30;;;;;;;16.18;51.19;101645.28;699442;28;23441;-66
2022/06/15 00:03:33;;;;;;;0.30;0.30;;;;;;;16.17;50.94;101640.84;698317;28;46421;-66
2022/06/15 00:03:56;;;;;;;0.30;0.30;;;;;;;16.18;50.76;101651.56;697564;28;67340;-66
2022/06/15 00:04:17;;;;;;;0.30;0.30;;;;;;;16.13;50.74;101645.03;698571;28;46405;-66
2022/06/15 00:04:38;;;;;;;0.30;0.30;;;;;;;16.16;51.06;101648.19;697995;28;45201;-66
2022/06/15 00:04:59;;;;;;;0.30;0.30;;;;;;;16.17;50.99;101654.47;699047;28;23415;-65
2022/06/15 00:05:21;;;;;;;0.30;0.30;;;;;;;16.17;50.87;101651.75;699536;28;7626;-66
2022/06/15 00:05:43;;;;;;;0.30;0.30;;;;;;;16.12;51.22;101643.31;698244;28;45219;-66
2022/06/15 00:06:05;;;;;;;0.30;0.30;;;;;;;16.11;51.29;101647.94;699617;28;22490;-66
2022/06/15 00:06:28;;;;;;;0.30;0.30;;;;;;;16.11;50.95;101642.47;698153;28;69457;-65
2022/06/15 00:06:51;;;;;;;0.30;0.30;;;;;;;16.07;51.03;101645.78;697301;28;67531;-66
2022/06/15 00:07:12;;;;;;;0.30;0.30;;;;;;;16.07;51.45;101649.34;698054;28;45227;-65
2022/06/15 00:07:33;;;;;;;0.30;0.30;;;;;;;16.07;51.13;101651.22;699395;28;23568;-66
2022/06/15 00:07:54;;;;;;;0.20;0.20;;;;;;;16.07;51.34;101645.78;699578;28;23432;-66
2022/06/15 00:08:15;;;;;;;0.30;0.30;;;;;;;16.05;51.42;101643.25;698347;28;45284;-66
2022/06/15 00:08:40;;;;;;;0.35;0.35;;;;;;;16.02;51.05;101643.63;699239;28;23477;-66
2022/06/15 00:09:01;;;;;;;0.30;0.30;;;;;;;16.01;51.31;101647.38;696549;28;108342;-65
2022/06/15 00:09:23;;;;;;;0.30;0.30;;;;;;;15.99;51.54;101646.72;699576;28;23477;-66
2022/06/15 00:09:44;;;;;;;0.32;0.32;;;;;;;15.96;51.03;101647.13;698418;28;23272;-65
2022/06/15 00:10:07;;;;;;;0.30;0.30;;;;;;;15.95;51.51;101642.69;699387;28;21586;-65
2022/06/15 00:10:29;;;;;;;0.30;0.30;;;;;;;15.93;51.27;101647.50;697307;28;92168;-65
2022/06/15 00:10:50;;;;;;;0.32;0.32;;;;;;;15.92;51.63;101637.63;699208;28;23522;-65
2022/06/15 00:11:14;;;;;;;0.30;0.30;;;;;;;15.90;51.57;101650.59;700025;28;21511;-64
2022/06/15 00:11:38;;;;;;;137.98;130.63;;;;;;;15.88;51.70;101636.31;697356;28;92290;-66
2022/06/15 00:11:59;;;;;;;224.13;210.93;;;;;;;15.87;51.32;101645.53;697010;28;91838;-65
2022/06/15 00:12:20;;;;;;;1.30;1.30;;;;;;;15.84;51.06;101650.31;700024;28;22391;-65
2022/06/15 00:12:41;;;;;;;0.32;0.32;;;;;;;15.78;51.91;101634.75;699711;28;22491;-64
2022/06/15 00:13:02;;;;;;;0.30;0.30;;;;;;;15.83;51.89;101645.03;699056;28;46370;-65
2022/06/15 00:13:28;;;;;;;0.30;0.30;;;;;;;15.82;51.53;101646.94;699227;28;23493;-65
2022/06/15 00:13:50;;;;;;;0.30;0.30;;;;;;;15.82;51.54;101648.81;696840;28;89738;-65
2022/06/15 00:14:14;;;;;;;0.40;0.40;;;;;;;15.82;51.73;101646.09;699171;28;47323;-65
2022/06/15 00:14:35;;;;;;;0.30;0.30;;;;;;;15.82;52.01;101644.22;696547;28;92417;-65
2022/06/15 00:14:57;;;;;;;33.40;31.25;;;;;;;15.82;52.01;101652.38;699304;28;21671;-65
2022/06/15 00:15:18;;;;;;;45.90;42.80;;;;;;;15.82;51.69;101643.38;698638;28;46502;-64
2022/06/15 00:15:40;;;;;;;0.30;0.30;;;;;;;15.82;51.98;101644.22;699371;28;22363;-66
2022/06/15 00:16:02;;;;;;;0.30;0.30;;;;;;;15.80;51.55;101635.38;698862;28;46263;-65
2022/06/15 00:16:25;;;;;;;0.35;0.35;;;;;;;15.83;51.71;101640.47;699147;28;43563;-64
2022/06/15 00:16:46;;;;;;;0.30;0.30;;;;;;;15.87;51.75;101646.38;697459;28;69440;-65
2022/06/15 00:17:07;;;;;;;0.30;0.30;;;;;;;15.85;51.47;101640.28;699246;28;22409;-65
2022/06/15 00:17:28;;;;;;;0.30;0.30;;;;;;;15.90;51.88;101645.16;700540;28;1651;-65
2022/06/15 00:17:51;;;;;;;0.30;0.30;;;;;;;15.90;51.84;101647.88;699531;28;22221;-65
2022/06/15 00:18:12;;;;;;;0.30;0.30;;;;;;;15.88;51.80;101637.16;697660;28;69474;-64
2022/06/15 00:18:34;;;;;;;0.30;0.30;;;;;;;15.89;51.85;101641.56;698118;28;44480;-64
2022/06/15 00:18:55;;;;;;;0.30;0.30;;;;;;;15.88;51.68;101645.34;698994;28;23469;-65
2022/06/15 00:19:17;;;;;;;99.47;91.97;;;;;;;15.84;51.72;101642.13;698620;28;46268;-65
2022/06/15 00:19:39;;;;;;;25.25;23.48;;;;;;;15.86;51.80;101644.66;697911;28;44219;-65
2022/06/15 00:20:00;;;;;;;96.47;89.95;;;;;;;15.85;51.88;101649.28;699036;28;23420;-65
2022/06/15 00:20:21;;;;;;;69.30;64.90;;;;;;;15.83;51.51;101645.91;698606;28;41015;-65
2022/06/15 00:20:43;;;;;;;8.57;8.07;;;;;;;15.83;51.57;101645.03;698998;28;22444;-65
2022/06/15 00:21:05;;;;;;;2.30;2.30;;;;;;;15.80;51.82;101640.84;698646;28;45101;-65
2022/06/15 00:21:26;;;;;;;1.83;1.83;;;;;;;15.82;51.52;101648.81;699242;28;40186;-65
2022/06/15 00:21:48;;;;;;;0.80;0.80;;;;;;;15.76;51.70;101641.38;699498;28;21552;-65
2022/06/15 00:22:13;;;;;;;0.85;0.85;;;;;;;15.79;52.20;101638.31;698534;28;46356;-65
2022/06/15 00:22:34;;;;;;;736.28;689.30;;;;;;;15.80;51.77;101645.44;697228;28;90856;-65
2022/06/15 00:22:55;;;;;;;1052.43;984.67;;;;;;;15.79;51.92;101641.03;698683;28;45281;-65
2022/06/15 00:23:16;;;;;;;1064.97;996.42;;;;;;;15.78;52.03;101640.19;699524;28;23330;-65
2022/06/15 00:23:40;;;;;;;1074.47;999.90;;;;;;;15.76;51.62;101639.47;699362;28;21490;-65
2022/06/15 00:24:02;;;;;;;1077.18;999.90;;;;;;;15.74;51.73;101644.28;697137;28;92306;-67
2022/06/15 00:24:23;;;;;;;1079.05;999.90;;;;;;;15.76;51.95;101642.22;698763;28;44381;-64
2022/06/15 00:24:44;;;;;;;1073.47;999.90;;;;;;;15.74;51.73;101644.28;697793;28;44455;-65
2022/06/15 00:25:07;;;;;;;1065.15;996.72;;;;;;;15.70;51.80;101634.78;699519;28;23471;-65
2022/06/15 00:25:29;;;;;;;1073.53;999.90;;;;;;;15.72;51.56;101631.88;697697;28;69276;-65
2022/06/15 00:25:50;;;;;;;1071.60;999.90;;;;;;;15.68;51.95;101634.97;699982;28;21555;-65
2022/06/15 00:26:12;;;;;;;577.80;540.35;;;;;;;15.71;52.17;101635.66;699805;28;21477;-65
2022/06/15 00:26:33;;;;;;;0.50;0.50;;;;;;;15.69;52.27;101638.56;698766;28;46790;-65
2022/06/15 00:26:56;;;;;;;0.30;0.30;;;;;;;15.61;51.91;101634.06;697936;28;23361;-64
2022/06/15 00:27:17;;;;;;;0.40;0.40;;;;;;;15.67;51.77;101641.47;697794;28;67178;-65
2022/06/15 00:27:38;;;;;;;0.30;0.30;;;;;;;15.65;52.26;101637.25;699842;28;22435;-66
2022/06/15 00:28:00;;;;;;;0.30;0.30;;;;;;;15.65;52.17;101640.81;698726;28;46321;-66
2022/06/15 00:28:22;;;;;;;0.30;0.30;;;;;;;15.64;52.33;101638.28;699172;28;21376;-66
2022/06/15 00:28:44;;;;;;;0.30;0.30;;;;;;;15.64;51.97;101641.00;697597;28;69167;-66
2022/06/15 00:29:05;;;;;;;0.30;0.30;;;;;;;15.62;52.04;101633.00;697010;28;22416;-65
2022/06/15 00:29:26;;;;;;;0.30;0.30;;;;;;;15.65;52.42;101642.69;697522;28;23425;-65
2022/06/15 00:29:48;;;;;;;0.40;0.40;;;;;;;15.64;52.18;101641.00;698102;28;43754;-65
2022/06/15 00:30:12;;;;;;;0.30;0.30;;;;;;;15.64;52.06;101636.41;698250;28;44412;-65
2022/06/15 00:30:33;;;;;;;0.30;0.30;;;;;;;15.59;52.13;101633.38;696200;28;69449;-65
2022/06/15 00:30:54;;;;;;;0.38;0.38;;;;;;;15.64;52.24;101639.13;697592;28;23521;-65
2022/06/15 00:31:16;;;;;;;5.50;5.25;;;;;;;15.65;52.08;101637.25;699530;28;21544;-66
2022/06/15 00:31:37;;;;;;;728.45;681.40;;;;;;;15.64;52.27;101635.53;697148;28;44392;-65
2022/06/15 00:31:59;;;;;;;1052.20;983.90;;;;;;;15.64;52.20;101636.41;697538;28;44386;-66
2022/06/15 00:32:20;;;;;;;1012.17;947.60;;;;;;;15.63;52.04;101637.44;698123;28;22441;-67
2022/06/15 00:32:42;;;;;;;1011.20;946.55;;;;;;;15.62;52.11;101637.63;696885;28;22270;-65
2022/06/15 00:33:04;;;;;;;1054.28;986.08;;;;;;;15.62;52.40;101633.00;695430;28;48280;-65
2022/06/15 00:33:26;;;;;;;919.88;860.30;;;;;;;15.61;52.18;101631.34;696182;28;22227;-65
2022/06/15 00:33:47;;;;;;;154.70;144.68;;;;;;;15.58;52.16;101637.16;696613;28;44191;-65
2022/06/15 00:34:10;;;;;;;2.20;2.10;;;;;;;15.60;52.02;101642.41;698847;28;46412;-66
2022/06/15 00:34:31;;;;;;;0.40;0.40;;;;;;;15.58;52.04;101637.16;698609;28;44403;-65
2022/06/15 00:34:52;;;;;;;2.40;2.30;;;;;;;15.55;52.02;101637.53;698982;28;22217;-66
2022/06/15 00:35:15;;;;;;;0.38;0.38;;;;;;;15.55;52.15;101632.09;699368;28;23729;-66
2022/06/15 00:35:37;;;;;;;0.30;0.30;;;;;;;15.54;52.20;101635.00;697812;28;69439;-66
2022/06/15 00:36:01;;;;;;;0.40;0.40;;;;;;;15.53;52.25;101638.75;698660;28;46333;-66
2022/06/15 00:36:22;;;;;;;12.80;11.70;;;;;;;15.52;52.15;101637.91;696740;28;92367;-66
2022/06/15 00:36:44;;;;;;;12.70;11.60;;;;;;;15.50;52.59;101629.94;698434;28;44217;-66
2022/06/15 00:37:06;;;;;;;0.30;0.30;;;;;;;15.52;52.31;101628.88;698889;28;22396;-66
2022/06/15 00:37:28;;;;;;;0.50;0.50;;;;;;;15.53;52.20;101636.84;698331;28;44427;-66
2022/06/15 00:37:50;;;;;;;32.00;30.33;;;;;;;15.54;52.60;101632.28;698759;28;44204;-66
2022/06/15 00:38:11;;;;;;;164.95;155.60;;;;;;;15.54;52.58;101635.00;699854;28;22397;-66
2022/06/15 00:38:35;;;;;;;0.77;0.77;;;;;;;15.53;52.69;101636.84;697828;28;62923;-66
2022/06/15 00:38:59;;;;;;;0.88;0.88;;;;;;;15.56;52.67;101635.66;697779;28;69461;-66
2022/06/15 00:39:21;;;;;;;3.42;3.35;;;;;;;15.54;52.28;101633.13;697193;28;92327;-66
2022/06/15 00:39:42;;;;;;;153.80;145.05;;;;;;;15.58;52.60;101639.88;697711;28;46304;-66
2022/06/15 00:40:06;;;;;;;443.20;416.80;;;;;;;15.59;52.60;101635.28;698757;28;22385;-66
2022/06/15 00:40:28;;;;;;;0.60;0.60;;;;;;;15.59;52.43;101638.84;698063;28;70665;-65
2022/06/15 00:40:49;;;;;;;0.50;0.50;;;;;;;15.60;52.57;101636.97;697959;28;69457;-65
2022/06/15 00:41:14;;;;;;;0.60;0.60;;;;;;;15.60;52.20;101639.69;699901;28;23420;-65
2022/06/15 00:41:38;;;;;;;0.60;0.60;;;;;;;15.60;52.20;101635.09;695682;28;115632;-64
2022/06/15 00:42:00;;;;;;;0.88;0.88;;;;;;;15.60;52.43;101640.53;697218;28;92304;-65
2022/06/15 00:42:21;;;;;;;0.80;0.80;;;;;;;15.60;52.28;101639.69;699632;28;24265;-65
2022/06/15 00:42:42;;;;;;;0.90;0.90;;;;;;;15.60;52.63;101631.53;698155;28;46339;-65
2022/06/15 00:43:04;;;;;;;1.40;1.40;;;;;;;15.58;52.69;101633.56;695752;28;22292;-65
2022/06/15 00:43:32;;;;;;;0.73;0.73;;;;;;;15.62;52.45;101637.63;695761;28;45280;-65
2022/06/15 00:43:55;;;;;;;0.82;0.82;;;;;;;15.62;52.32;101635.72;691181;28;138079;-65
2022/06/15 00:44:36;;;;;;;0.70;0.70;;;;;;;15.63;52.21;101636.59;694886;28;69420;-65
2022/06/15 00:44:57;;;;;;;1.90;1.83;;;;;;;15.63;52.64;101631.16;692688;28;157665;-66
2022/06/15 00:45:19;;;;;;;4.93;4.78;;;;;;;15.63;52.36;101629.25;698311;28;44382;-66
2022/06/15 00:45:40;;;;;;;22.55;21.60;;;;;;;15.64;52.62;101641.00;696900;28;22407;-66
2022/06/15 00:46:12;;;;;;;47.00;44.80;;;;;;;15.61;52.55;101636.78;693073;28;21828;-65
2022/06/15 00:46:37;;;;;;;12.23;11.75;;;;;;;15.63;52.34;101628.44;688073;28;136022;-64
2022/06/15 00:47:00;;;;;;;3.53;3.42;;;;;;;15.64;52.50;101630.09;686193;28;112618;-65
2022/06/15 00:47:24;;;;;;;1.23;1.23;;;;;;;15.64;52.38;101635.53;685299;28;69499;-65
2022/06/15 00:47:46;;;;;;;0.90;0.90;;;;;;;15.64;52.39;101636.41;689102;28;93061;-65
2022/06/15 00:48:08;;;;;;;0.95;0.95;;;;;;;15.64;52.05;101633.69;691810;28;69733;-65
2022/06/15 00:48:30;;;;;;;0.82;0.82;;;;;;;15.62;52.20;101635.72;693561;28;1643;-67
2022/06/15 00:48:55;;;;;;;0.82;0.82;;;;;;;15.59;52.41;101636.09;695357;28;21651;-65
2022/06/15 00:49:19;;;;;;;1.08;1.08;;;;;;;15.61;52.05;101635.94;691402;28;136851;-65
2022/06/15 00:49:42;;;;;;;1.05;1.05;;;;;;;15.61;52.24;101635.94;694448;27;70492;-65
2022/06/15 00:50:09;;;;;;;0.70;0.70;;;;;;;15.60;52.41;101636.97;690973;28;92195;-65
2022/06/15 00:50:30;;;;;;;0.80;0.80;;;;;;;15.59;52.11;101633.38;692189;28;139356;-65
2022/06/15 00:50:52;;;;;;;1.00;1.00;;;;;;;15.56;52.31;101639.22;697174;28;7160;-64
2022/06/15 00:51:14;;;;;;;0.85;0.85;;;;;;;15.54;52.46;101630.41;697149;28;46494;-65
2022/06/15 00:51:37;;;;;;;0.70;0.70;;;;;;;15.52;52.68;101637.06;698051;28;47891;-65
2022/06/15 00:52:03;;;;;;;261.38;246.10;;;;;;;15.51;52.53;101636.22;697596;28;69423;-65
2022/06/15 00:52:32;;;;;;;988.67;926.25;;;;;;;15.46;52.27;101633.22;695312;28;138055;-65
2022/06/15 00:52:56;;;;;;;1004.08;938.72;;;;;;;15.42;52.43;101627.31;695413;28;137689;-65
2022/06/15 00:53:18;;;;;;;990.67;926.15;;;;;;;15.41;52.91;101633.78;696215;28;90809;-66
2022/06/15 00:53:39;;;;;;;1006.33;940.95;;;;;;;15.39;52.92;101629.53;697642;28;45262;-66
2022/06/15 00:54:03;;;;;;;998.20;933.17;;;;;;;15.36;52.91;101628.06;699010;28;22394;-66
2022/06/15 00:54:25;;;;;;;979.50;915.40;;;;;;;15.34;52.94;101638.28;698139;28;48627;-66
2022/06/15 00:54:48;;;;;;;983.00;918.70;;;;;;;15.31;53.13;101633.19;694466;28;44175;-66
2022/06/15 00:55:14;;;;;;;985.90;921.45;;;;;;;15.29;52.97;101633.38;694802;28;44426;-66
2022/06/15 00:55:37;;;;;;;993.50;928.83;;;;;;;15.28;52.99;101641.72;689811;28;136848;-66
2022/06/15 00:55:59;;;;;;;990.15;925.50;;;;;;;15.25;52.95;101632.09;692055;28;69839;-66
2022/06/15 00:56:20;;;;;;;626.30;589.17;;;;;;;15.26;53.14;101632.91;692290;28;69300;-67
2022/06/15 00:56:42;;;;;;;285.77;271.13;;;;;;;15.25;53.17;101634.81;694860;28;23482;-66
2022/06/15 00:57:04;;;;;;;338.58;319.63;;;;;;;15.26;53.22;101630.19;694034;28;21512;-66
2022/06/15 00:57:26;;;;;;;882.78;826.05;;;;;;;15.25;53.21;101633.94;692824;28;69745;-64
2022/06/15 00:57:48;;;;;;;973.15;909.25;;;;;;;15.26;53.08;101641.09;695770;28;45254;-66
2022/06/15 00:58:10;;;;;;;985.22;920.72;;;;;;;15.25;53.17;101636.66;694238;28;46275;-65
2022/06/15 00:58:32;;;;;;;971.30;907.38;;;;;;;15.24;53.28;101640.44;693448;28;45259;-64
2022/06/15 00:58:57;;;;;;;965.53;901.75;;;;;;;15.23;53.46;101636.84;695290;28;22213;-65
2022/06/15 00:59:23;;;;;;;958.78;895.15;;;;;;;15.22;53.00;101639.75;694789;28;138848;-65
2022/06/15 00:59:51;;;;;;;973.78;909.53;;;;;;;15.20;53.20;101633.66;695028;28;138739;-65
2022/06/15 01:00:14;;;;;;;968.30;904.45;;;;;;;15.19;53.49;101637.41;695818;28;137688;-65
2022/06/15 01:00:35;;;;;;;956.28;892.97;;;;;;;15.18;53.31;101631.13;697587;28;68239;-66
2022/06/15 01:00:57;;;;;;;961.75;898.15;;;;;;;15.22;53.33;101642.47;699302;28;21549;-66
2022/06/15 01:01:18;;;;;;;961.97;898.38;;;;;;;15.22;53.28;101640.63;699415;28;22388;-66
2022/06/15 01:01:41;;;;;;;964.30;900.67;;;;;;;15.22;53.22;101635.19;698773;28;44356;-65
2022/06/15 01:02:02;;;;;;;970.55;906.65;;;;;;;15.21;53.67;101640.81;695948;28;46162;-65
2022/06/15 01:02:23;;;;;;;966.97;903.22;;;;;;;15.20;53.38;101633.66;695758;28;46312;-66
2022/06/15 01:02:45;;;;;;;976.13;911.35;;;;;;;15.19;53.62;101642.84;693872;28;22307;-65
2022/06/15 01:03:10;;;;;;;974.55;909.50;;;;;;;15.17;53.39;101634.88;691224;28;46596;-65
2022/06/15 01:03:33;;;;;;;974.03;909.67;;;;;;;15.21;53.57;101644.38;693041;28;61215;-65
2022/06/15 01:03:56;;;;;;;964.40;900.40;;;;;;;15.21;53.25;101641.63;696052;28;45425;-65
2022/06/15 01:04:19;;;;;;;971.67;907.42;;;;;;;15.19;53.47;101634.69;696578;28;69276;-65
2022/06/15 01:04:44;;;;;;;981.90;917.20;;;;;;;15.22;53.26;101634.31;693609;28;69395;-65
2022/06/15 01:05:10;;;;;;;974.25;910.08;;;;;;;15.22;53.25;101637.91;695700;28;92293;-65
2022/06/15 01:05:36;;;;;;;983.80;919.27;;;;;;;15.24;53.34;101645.88;692968;28;161231;-65
2022/06/15 01:06:02;;;;;;;978.63;913.97;;;;;;;15.25;53.44;101642.97;694844;28;139333;-65
2022/06/15 01:06:31;;;;;;;969.22;905.17;;;;;;;15.27;53.48;101637.34;695125;28;113536;-65
2022/06/15 01:07:09;;;;;;;972.88;908.85;;;;;;;15.28;53.01;101631.72;692291;28;138363;-65
2022/06/15 01:08:10;;;;;;;959.47;895.97;;;;;;;15.29;53.05;101646.16;692866;28;138883;-65
2022/06/15 01:08:37;;;;;;;935.25;872.85;;;;;;;15.29;52.96;101635.28;684908;28;137771;-65
2022/06/15 01:09:00;;;;;;;922.70;860.70;;;;;;;15.30;53.08;101632.38;688528;28;137554;-66
2022/06/15 01:09:25;;;;;;;939.45;876.90;;;;;;;15.30;53.06;101642.41;692248;28;67470;-66
2022/06/15 01:09:55;;;;;;;960.35;896.90;;;;;;;15.29;53.17;101635.28;686738;28;136404;-66
2022/06/15 01:10:25;;;;;;;967.97;904.13;;;;;;;15.28;53.30;101634.44;686829;28;137880;-66
2022/06/15 01:10:58;;;;;;;998.60;933.08;;;;;;;15.25;52.99;101634.81;690787;28;137311;-66
2022/06/15 01:11:27;;;;;;;935.80;879.25;;;;;;;15.25;52.94;101625.78;692692;28;137535;-66
2022/06/15 01:12:05;;;;;;;1022.63;959.95;;;;;;;15.24;53.07;101635.00;693973;28;160877;-66
2022/06/15 01:12:31;;;;;;;944.35;881.63;;;;;;;15.22;53.06;101629.72;697650;28;138329;-66
2022/06/15 01:13:00;;;;;;;953.65;890.60;;;;;;;15.20;53.00;101633.66;697183;28;136345;-66
2022/06/15 01:13:36;;;;;;;954.30;891.10;;;;;;;15.18;52.95;101633.00;697661;28;137906;-66
2022/06/15 01:14:16;;;;;;;938.65;876.05;;;;;;;15.12;53.42;101632.72;698143;28;137682;-66
2022/06/15 01:14:53;;;;;;;931.97;869.63;;;;;;;15.11;53.00;101636.47;694114;28;137389;-66
2022/06/15 01:15:25;;;;;;;976.03;913.40;;;;;;;15.08;53.39;101623.25;694974;28;136041;-66
2022/06/15 01:15:55;;;;;;;974.90;910.83;;;;;;;15.06;53.28;101629.88;695116;28;137385;-66
2022/06/15 01:16:23;;;;;;;975.88;911.65;;;;;;;15.04;53.55;101624.63;689468;28;162436;-65
2022/06/15 01:16:49;;;;;;;945.28;882.30;;;;;;;15.02;53.32;101626.69;689848;28;137745;-66
2022/06/15 01:17:20;;;;;;;928.63;866.33;;;;;;;15.01;53.51;101627.72;688858;28;136636;-66
2022/06/15 01:17:54;;;;;;;943.47;880.75;;;;;;;15.00;53.74;101625.19;689109;28;137708;-66
2022/06/15 01:18:23;;;;;;;977.63;913.22;;;;;;;15.00;53.54;101626.03;690110;28;160618;-66
2022/06/15 01:18:51;;;;;;;999.25;934.08;;;;;;;15.01;53.53;101627.72;692007;28;138102;-66
2022/06/15 01:19:30;;;;;;;941.63;879.00;;;;;;;15.03;53.75;101630.25;692265;28;137793;-66
2022/06/15 01:20:10;;;;;;;684.22;639.42;;;;;;;15.05;53.82;101626.31;685810;28;160080;-66
2022/06/15 01:20:48;;;;;;;223.85;211.35;;;;;;;15.06;53.69;101633.47;690002;28;137688;-66
2022/06/15 01:21:22;;;;;;;512.72;482.63;;;;;;;15.07;53.94;101624.25;691793;28;137308;-66
2022/06/15 01:21:48;;;;;;;125.35;118.85;;;;;;;15.10;53.78;101633.94;693437;28;135909;-66
2022/06/15 01:22:19;;;;;;;572.53;540.05;;;;;;;15.13;53.57;101630.84;698340;28;136085;-66
2022/06/15 01:23:27;;;;;;;342.60;320.85;;;;;;;15.17;53.69;101626.69;697577;28;137396;-66
2022/06/15 01:24:24;;;;;;;561.88;526.28;;;;;;;15.21;53.11;101627.19;693073;28;136130;-66
2022/06/15 01:25:06;;;;;;;425.27;400.08;;;;;;;15.22;53.31;101631.59;688739;28;136380;-66
2022/06/15 01:25:38;;;;;;;1041.85;975.50;;;;;;;15.23;53.09;101627.84;691163;28;62384;-66
2022/06/15 01:26:17;;;;;;;1038.85;971.75;;;;;;;15.21;53.07;101622.59;695766;28;36766;-66
2022/06/15 01:27:07;;;;;;;1003.80;938.50;;;;;;;15.22;53.20;101634.31;696627;28;62176;-66
2022/06/15 01:28:04;;;;;;;1012.65;946.80;;;;;;;15.18;52.81;101633.00;697494;28;59752;-66
2022/06/15 01:28:39;;;;;;;969.17;905.70;;;;;;;15.13;53.18;101626.25;697664;28;62397;-66
2022/06/15 01:29:09;;;;;;;994.28;929.42;;;;;;;15.13;53.05;101633.56;695449;28;137709;-66
2022/06/15 01:30:12;;;;;;;946.65;884.17;;;;;;;15.13;53.18;101634.41;694963;28;137864;-66
2022/06/15 01:30:40;;;;;;;966.67;904.17;;;;;;;15.11;53.04;101631.03;693781;28;157298;-66
2022/06/15 01:31:08;;;;;;;986.75;922.13;;;;;;;15.12;53.14;101640.03;692997;28;136400;-66
2022/06/15 01:31:31;;;;;;;992.38;927.53;;;;;;;15.12;53.30;101638.19;691666;28;137438;-66
2022/06/15 01:31:57;;;;;;;993.70;928.70;;;;;;;15.12;52.98;101624.56;694790;28;70330;-66
2022/06/15 01:32:19;;;;;;;952.42;889.45;;;;;;;15.14;52.95;101638.81;692168;28;136435;-66
2022/06/15 01:32:53;;;;;;;976.05;912.78;;;;;;;15.14;52.86;101635.28;692360;28;138936;-65
2022/06/15 01:33:22;;;;;;;986.05;923.53;;;;;;;15.11;52.91;101624.75;692428;28;136147;-66
2022/06/15 01:33:51;;;;;;;1007.42;941.90;;;;;;;15.12;53.07;101635.47;687631;28;137686;-66
2022/06/15 01:34:20;;;;;;;819.58;767.55;;;;;;;15.13;52.92;101628.97;687052;28;138417;-65
2022/06/15 01:34:46;;;;;;;626.10;586.13;;;;;;;15.12;53.36;101631.88;687588;28;161143;-65
2022/06/15 01:35:13;;;;;;;668.58;626.95;;;;;;;15.11;52.90;101630.19;691081;28;138685;-65
2022/06/15 01:35:44;;;;;;;715.28;671.17;;;;;;;15.10;53.08;101631.22;692778;28;137761;-65
2022/06/15 01:36:13;;;;;;;493.77;462.93;;;;;;;15.07;53.35;101626.97;691937;28;138193;-65
2022/06/15 01:36:41;;;;;;;954.47;891.38;;;;;;;15.06;52.98;101633.47;692678;28;137914;-65
2022/06/15 01:37:05;;;;;;;929.85;867.63;;;;;;;15.06;53.37;101625.31;692617;28;136290;-65
2022/06/15 01:37:34;;;;;;;930.63;868.58;;;;;;;15.04;53.33;101632.78;696738;28;92255;-65
2022/06/15 01:37:57;;;;;;;938.15;875.95;;;;;;;15.04;53.37;101623.78;695523;28;136174;-65
2022/06/15 01:38:28;;;;;;;418.15;392.52;;;;;;;15.04;53.38;101627.34;691923;28;90733;-65
2022/06/15 01:38:54;;;;;;;959.17;896.83;;;;;;;14.96;53.53;101611.94;690320;28;137887;-65
2022/06/15 01:39:20;;;;;;;644.72;603.33;;;;;;;15.03;53.06;101628.41;689900;28;136522;-65
2022/06/15 01:39:45;;;;;;;60.85;57.95;;;;;;;15.01;53.56;101625.00;689525;28;138390;-65
2022/06/15 01:40:08;;;;;;;15.02;14.48;;;;;;;15.00;53.39;101625.19;691752;28;113563;-65
2022/06/15 01:40:33;;;;;;;24.70;23.65;;;;;;;15.00;53.48;101627.91;696469;28;90363;-65
2022/06/15 01:41:04;;;;;;;19.55;18.77;;;;;;;14.98;53.40;101621.81;690797;28;115132;-64
2022/06/15 01:41:30;;;;;;;11.85;11.45;;;;;;;14.96;53.32;101622.84;691847;28;137821;-64
2022/06/15 01:41:57;;;;;;;24.90;23.90;;;;;;;14.96;53.43;101625.56;692860;28;137926;-65
2022/06/15 01:42:23;;;;;;;33.85;32.40;;;;;;;14.95;53.57;101626.59;689968;28;135934;-65
2022/06/15 01:42:54;;;;;;;35.08;33.50;;;;;;;14.94;53.33;101624.06;690907;28;137750;-65
2022/06/15 01:43:19;;;;;;;588.13;555.00;;;;;;;14.94;53.54;101629.50;691839;28;159456;-66
2022/06/15 01:43:45;;;;;;;818.17;771.25;;;;;;;14.92;53.36;101632.41;689977;28;139206;-66
2022/06/15 01:44:13;;;;;;;851.15;802.40;;;;;;;14.89;53.72;101619.19;691192;28;136440;-66
2022/06/15 01:44:37;;;;;;;932.00;876.05;;;;;;;14.91;53.80;101621.72;687874;28;133112;-66
2022/06/15 01:45:00;;;;;;;780.95;731.50;;;;;;;14.91;53.77;101628.00;685427;28;112082;-66
2022/06/15 01:45:25;;;;;;;4.63;4.40;;;;;;;14.89;53.64;101621.91;689444;28;90455;-66
2022/06/15 01:45:51;;;;;;;0.30;0.30;;;;;;;14.89;53.74;101626.47;692073;28;91961;-66
2022/06/15 01:46:15;;;;;;;0.40;0.40;;;;;;;14.87;53.74;101623.09;693708;28;108927;-65
2022/06/15 01:46:40;;;;;;;0.30;0.30;;;;;;;14.89;53.44;101623.75;698888;28;41286;-65
2022/06/15 01:47:04;;;;;;;0.30;0.30;;;;;;;14.87;53.41;101623.09;694913;28;92448;-66
2022/06/15 01:47:27;;;;;;;0.40;0.40;;;;;;;14.87;53.88;101626.66;692052;28;92299;-66
2022/06/15 01:47:50;;;;;;;0.40;0.40;;;;;;;14.87;53.68;101626.66;688822;28;67372;-66
2022/06/15 01:48:12;;;;;;;0.30;0.30;;;;;;;14.86;53.77;101624.97;688155;28;69497;-66
2022/06/15 01:48:38;;;;;;;0.30;0.30;;;;;;;14.86;53.46;101627.69;688940;28;115171;-66
2022/06/15 01:48:59;;;;;;;0.40;0.40;;;;;;;14.86;53.91;101618.69;693257;28;67475;-66
2022/06/15 01:49:24;;;;;;;0.30;0.30;;;;;;;14.86;53.69;101624.97;693250;28;22392;-66
2022/06/15 01:49:49;;;;;;;0.30;0.30;;;;;;;14.86;53.63;101622.25;690274;28;115334;-66
2022/06/15 01:50:16;;;;;;;0.40;0.40;;;;;;;14.87;53.90;101625.81;693030;28;115178;-66
2022/06/15 01:50:39;;;;;;;0.40;0.40;;;;;;;14.89;53.94;101623.75;692432;28;139075;-66
2022/06/15 01:51:04;;;;;;;0.30;0.30;;;;;;;14.91;53.60;101624.44;694390;28;69455;-66
2022/06/15 01:51:32;;;;;;;0.40;0.40;;;;;;;14.92;53.50;101623.38;693975;28;137820;-66
2022/06/15 01:51:56;;;;;;;0.40;0.40;;;;;;;14.91;53.83;101622.53;694570;28;138095;-66
2022/06/15 01:52:22;;;;;;;0.30;0.30;;;;;;;14.95;53.52;101621.16;695951;28;114911;-66
2022/06/15 01:52:46;;;;;;;0.40;0.40;;;;;;;14.95;53.55;101625.72;693518;28;114871;-65
2022/06/15 01:53:12;;;;;;;0.40;0.40;;;;;;;14.97;53.43;101626.41;695898;28;67610;-66
2022/06/15 01:53:36;;;;;;;0.30;0.30;;;;;;;14.98;53.31;101624.53;693286;28;138115;-66
2022/06/15 01:54:02;;;;;;;0.35;0.35;;;;;;;14.96;53.41;101625.56;694914;28;115147;-66
2022/06/15 01:54:27;;;;;;;0.40;0.40;;;;;;;14.96;53.79;101622.00;696283;28;92337;-66
2022/06/15 01:54:52;;;;;;;0.30;0.30;;;;;;;14.96;53.44;101622.84;696289;28;137690;-66
2022/06/15 01:55:19;;;;;;;0.30;0.30;;;;;;;14.98;53.42;101624.53;690420;28;115208;-66
2022/06/15 01:55:44;;;;;;;0.40;0.40;;;;;;;14.95;53.62;101623.88;689768;28;137730;-65